sensor_id;sensor_type;location;lat;lon;timestamp;pressure;altitude;pressure_sealevel;temperature;humidity
45078;BME280;60508;42.622;25.416;2023-04-05T00:01:45;95943.25;;;7.44;60.84
45078;BME280;60508;42.622;25.416;2023-04-05T00:04:14;95947.06;;;7.31;59.85
45078;BME280;60508;42.622;25.416;2023-04-05T00:06:47;95947.63;;;7.16;61.74
45078;BME280;60508;42.622;25.416;2023-04-05T00:09:18;95949.66;;;7.09;62.37
45078;BME280;60508;42.622;25.416;2023-04-05T00:11:45;95952.94;;;6.99;60.21
45078;BME280;60508;42.622;25.416;2023-04-05T00:14:12;95958.63;;;7.03;59.47
45078;BME280;60508;42.622;25.416;2023-04-05T00:16:38;95952.84;;;6.94;60.12
45078;BME280;60508;42.622;25.416;2023-04-05T00:19:04;95947.94;;;7.03;60.01
45078;BME280;60508;42.622;25.416;2023-04-05T00:21:30;95952.56;;;7.07;59.92
45078;BME280;60508;42.622;25.416;2023-04-05T00:23:58;95959.25;;;6.93;59.75
45078;BME280;60508;42.622;25.416;2023-04-05T00:26:24;95956.34;;;6.94;59.60
45078;BME280;60508;42.622;25.416;2023-04-05T00:28:55;95968.22;;;6.87;59.83
45078;BME280;60508;42.622;25.416;2023-04-05T00:31:22;95967.03;;;6.94;60.04
45078;BME280;60508;42.622;25.416;2023-04-05T00:33:47;95958.44;;;6.92;59.60
45078;BME280;60508;42.622;25.416;2023-04-05T00:36:14;95965.81;;;7.02;58.99
45078;BME280;60508;42.622;25.416;2023-04-05T00:38:41;95953.94;;;6.93;58.96
45078;BME280;60508;42.622;25.416;2023-04-05T00:41:08;95959.75;;;6.90;59.41
45078;BME280;60508;42.622;25.416;2023-04-05T00:43:34;95951.34;;;6.69;58.32
45078;BME280;60508;42.622;25.416;2023-04-05T00:46:04;95949.97;;;6.67;59.79
45078;BME280;60508;42.622;25.416;2023-04-05T00:48:31;95954.13;;;6.74;58.98
45078;BME280;60508;42.622;25.416;2023-04-05T00:50:58;95961.66;;;6.78;58.82
45078;BME280;60508;42.622;25.416;2023-04-05T00:53:24;95955.31;;;6.67;60.49
45078;BME280;60508;42.622;25.416;2023-04-05T00:55:54;95961.31;;;6.74;59.68
45078;BME280;60508;42.622;25.416;2023-04-05T00:58:21;95957.16;;;6.66;61.00
45078;BME280;60508;42.622;25.416;2023-04-05T01:01:20;95972.06;;;6.62;62.22
45078;BME280;60508;42.622;25.416;2023-04-05T01:03:51;95971.00;;;6.63;62.66
45078;BME280;60508;42.622;25.416;2023-04-05T01:11:37;95981.09;;;6.61;65.01
45078;BME280;60508;42.622;25.416;2023-04-05T01:14:04;95979.47;;;6.60;65.72
45078;BME280;60508;42.622;25.416;2023-04-05T01:16:30;95986.59;;;6.54;65.92
45078;BME280;60508;42.622;25.416;2023-04-05T01:18:56;95990.06;;;6.55;66.51
45078;BME280;60508;42.622;25.416;2023-04-05T01:21:32;95983.94;;;6.43;66.74
45078;BME280;60508;42.622;25.416;2023-04-05T01:27:39;95994.25;;;6.80;65.77
45078;BME280;60508;42.622;25.416;2023-04-05T01:30:19;95994.34;;;6.56;67.36
45078;BME280;60508;42.622;25.416;2023-04-05T01:37:48;96014.47;;;6.35;69.11
45078;BME280;60508;42.622;25.416;2023-04-05T01:40:18;96004.75;;;6.29;68.82
45078;BME280;60508;42.622;25.416;2023-04-05T01:42:44;96007.03;;;6.37;68.19
45078;BME280;60508;42.622;25.416;2023-04-05T01:45:13;96007.47;;;6.46;67.80
45078;BME280;60508;42.622;25.416;2023-04-05T01:47:38;96005.06;;;6.32;67.65
45078;BME280;60508;42.622;25.416;2023-04-05T01:50:05;96002.31;;;6.27;68.07
45078;BME280;60508;42.622;25.416;2023-04-05T01:52:31;96005.66;;;6.34;67.77
45078;BME280;60508;42.622;25.416;2023-04-05T01:54:57;96007.19;;;6.30;67.39
45078;BME280;60508;42.622;25.416;2023-04-05T01:57:23;96008.09;;;6.24;67.12
45078;BME280;60508;42.622;25.416;2023-04-05T01:59:49;96014.47;;;6.23;66.85
45078;BME280;60508;42.622;25.416;2023-04-05T02:02:15;96013.63;;;6.46;65.49
45078;BME280;60508;42.622;25.416;2023-04-05T02:04:41;96010.28;;;6.39;65.71
45078;BME280;60508;42.622;25.416;2023-04-05T02:07:08;96013.16;;;6.49;64.57
45078;BME280;60508;42.622;25.416;2023-04-05T02:09:34;96018.31;;;6.27;64.52
45078;BME280;60508;42.622;25.416;2023-04-05T02:12:01;96006.47;;;6.23;61.17
45078;BME280;60508;42.622;25.416;2023-04-05T02:14:27;96003.84;;;6.11;59.78
45078;BME280;60508;42.622;25.416;2023-04-05T02:16:53;96014.41;;;6.06;59.15
45078;BME280;60508;42.622;25.416;2023-04-05T02:19:22;96018.56;;;6.02;59.08
45078;BME280;60508;42.622;25.416;2023-04-05T02:21:48;96014.00;;;5.91;59.14
45078;BME280;60508;42.622;25.416;2023-04-05T02:24:15;96004.19;;;5.91;58.33
45078;BME280;60508;42.622;25.416;2023-04-05T02:26:41;96019.34;;;5.91;58.80
45078;BME280;60508;42.622;25.416;2023-04-05T02:29:06;96017.03;;;5.82;59.17
45078;BME280;60508;42.622;25.416;2023-04-05T02:31:33;96013.78;;;5.80;59.17
45078;BME280;60508;42.622;25.416;2023-04-05T02:33:59;96019.38;;;5.67;59.02
45078;BME280;60508;42.622;25.416;2023-04-05T02:36:25;96026.66;;;5.72;59.65
45078;BME280;60508;42.622;25.416;2023-04-05T02:38:53;96029.69;;;5.75;59.65
45078;BME280;60508;42.622;25.416;2023-04-05T02:41:19;96030.59;;;5.81;59.04
45078;BME280;60508;42.622;25.416;2023-04-05T02:43:47;96015.44;;;5.81;59.70
45078;BME280;60508;42.622;25.416;2023-04-05T02:46:13;96012.88;;;5.87;60.09
45078;BME280;60508;42.622;25.416;2023-04-05T02:48:41;96023.88;;;5.90;59.80
45078;BME280;60508;42.622;25.416;2023-04-05T02:51:10;96015.78;;;5.85;60.91
45078;BME280;60508;42.622;25.416;2023-04-05T02:53:38;96017.25;;;5.81;62.23
45078;BME280;60508;42.622;25.416;2023-04-05T02:56:07;96018.78;;;5.89;62.50
45078;BME280;60508;42.622;25.416;2023-04-05T02:58:37;96020.31;;;5.96;62.21
45078;BME280;60508;42.622;25.416;2023-04-05T03:01:03;96029.94;;;5.97;63.18
45078;BME280;60508;42.622;25.416;2023-04-05T03:03:32;96036.88;;;5.98;64.27
45078;BME280;60508;42.622;25.416;2023-04-05T03:06:05;96039.31;;;6.12;63.66
45078;BME280;60508;42.622;25.416;2023-04-05T03:08:42;96041.41;;;6.33;62.08
45078;BME280;60508;42.622;25.416;2023-04-05T03:11:14;96039.16;;;6.42;61.47
45078;BME280;60508;42.622;25.416;2023-04-05T03:13:45;96036.06;;;6.33;61.38
45078;BME280;60508;42.622;25.416;2023-04-05T03:16:18;96037.91;;;6.21;63.09
45078;BME280;60508;42.622;25.416;2023-04-05T03:18:44;96033.75;;;6.25;63.45
45078;BME280;60508;42.622;25.416;2023-04-05T03:21:11;96043.34;;;6.26;64.18
45078;BME280;60508;42.622;25.416;2023-04-05T03:23:46;96045.78;;;6.28;63.70
45078;BME280;60508;42.622;25.416;2023-04-05T03:26:17;96038.72;;;6.21;63.51
45078;BME280;60508;42.622;25.416;2023-04-05T03:28:48;96045.22;;;6.26;62.19
45078;BME280;60508;42.622;25.416;2023-04-05T03:31:15;96053.44;;;6.48;61.21
45078;BME280;60508;42.622;25.416;2023-04-05T03:33:42;96041.69;;;6.49;59.81
45078;BME280;60508;42.622;25.416;2023-04-05T03:36:09;96045.66;;;6.46;58.94
45078;BME280;60508;42.622;25.416;2023-04-05T03:38:37;96052.16;;;6.38;58.14
45078;BME280;60508;42.622;25.416;2023-04-05T03:41:14;96061.44;;;6.36;58.55
45078;BME280;60508;42.622;25.416;2023-04-05T03:43:41;96065.63;;;6.32;58.52
45078;BME280;60508;42.622;25.416;2023-04-05T03:46:06;96064.50;;;6.16;59.46
45078;BME280;60508;42.622;25.416;2023-04-05T03:48:33;96067.16;;;6.16;60.19
45078;BME280;60508;42.622;25.416;2023-04-05T03:50:58;96067.94;;;6.16;60.40
45078;BME280;60508;42.622;25.416;2023-04-05T03:53:25;96071.69;;;6.15;61.01
45078;BME280;60508;42.622;25.416;2023-04-05T03:55:54;96073.88;;;6.07;60.96
45078;BME280;60508;42.622;25.416;2023-04-05T03:58:33;96069.72;;;6.11;61.37
45078;BME280;60508;42.622;25.416;2023-04-05T04:00:59;96074.44;;;6.09;61.36
45078;BME280;60508;42.622;25.416;2023-04-05T04:03:26;96086.16;;;6.08;61.32
45078;BME280;60508;42.622;25.416;2023-04-05T04:05:54;96086.97;;;6.08;61.71
45078;BME280;60508;42.622;25.416;2023-04-05T04:08:20;96084.63;;;5.88;62.61
45078;BME280;60508;42.622;25.416;2023-04-05T04:10:47;96092.31;;;5.96;62.93
45078;BME280;60508;42.622;25.416;2023-04-05T04:13:26;96086.28;;;6.01;63.91
45078;BME280;60508;42.622;25.416;2023-04-05T04:16:10;96087.78;;;6.09;64.62
45078;BME280;60508;42.622;25.416;2023-04-05T04:18:56;96098.94;;;6.17;63.14
45078;BME280;60508;42.622;25.416;2023-04-05T04:21:41;96096.94;;;6.25;63.47
45078;BME280;60508;42.622;25.416;2023-04-05T04:24:31;96107.16;;;6.16;63.87
45078;BME280;60508;42.622;25.416;2023-04-05T04:27:31;96107.97;;;6.16;64.31
45078;BME280;60508;42.622;25.416;2023-04-05T04:30:16;96106.81;;;6.24;64.90
45078;BME280;60508;42.622;25.416;2023-04-05T04:33:04;96111.44;;;6.29;63.83
45078;BME280;60508;42.622;25.416;2023-04-05T04:35:51;96116.78;;;6.40;63.36
45078;BME280;60508;42.622;25.416;2023-04-05T04:38:53;96112.25;;;6.53;63.18
45078;BME280;60508;42.622;25.416;2023-04-05T04:41:44;96113.75;;;6.49;63.17
45078;BME280;60508;42.622;25.416;2023-04-05T04:44:30;96109.56;;;6.41;63.55
45078;BME280;60508;42.622;25.416;2023-04-05T04:47:20;96113.19;;;6.23;64.24
45078;BME280;60508;42.622;25.416;2023-04-05T04:50:08;96117.72;;;6.22;64.51
45078;BME280;60508;42.622;25.416;2023-04-05T04:52:35;96115.41;;;6.38;64.27
45078;BME280;60508;42.622;25.416;2023-04-05T04:55:01;96130.81;;;6.48;64.37
45078;BME280;60508;42.622;25.416;2023-04-05T04:57:27;96129.16;;;6.58;63.06
45078;BME280;60508;42.622;25.416;2023-04-05T04:59:54;96135.78;;;6.68;63.25
45078;BME280;60508;42.622;25.416;2023-04-05T05:02:24;96123.38;;;6.73;62.78
45078;BME280;60508;42.622;25.416;2023-04-05T05:04:50;96134.66;;;6.64;63.37
45078;BME280;60508;42.622;25.416;2023-04-05T05:07:16;96131.16;;;6.75;62.44
45078;BME280;60508;42.622;25.416;2023-04-05T05:09:43;96125.22;;;6.73;61.97
45078;BME280;60508;42.622;25.416;2023-04-05T05:12:09;96123.47;;;6.79;62.80
45078;BME280;60508;42.622;25.416;2023-04-05T05:14:35;96124.13;;;6.98;61.62
45078;BME280;60508;42.622;25.416;2023-04-05T05:17:01;96135.19;;;7.18;60.45
45078;BME280;60508;42.622;25.416;2023-04-05T05:19:28;96126.53;;;7.40;59.94
45078;BME280;60508;42.622;25.416;2023-04-05T05:21:55;96125.03;;;7.61;59.63
45078;BME280;60508;42.622;25.416;2023-04-05T05:24:20;96122.38;;;7.61;59.53
45078;BME280;60508;42.622;25.416;2023-04-05T05:26:46;96129.75;;;7.88;59.04
45078;BME280;60508;42.622;25.416;2023-04-05T05:29:13;96130.91;;;8.09;56.16
45078;BME280;60508;42.622;25.416;2023-04-05T05:31:42;96131.09;;;8.19;55.59
45078;BME280;60508;42.622;25.416;2023-04-05T05:34:08;96130.91;;;8.26;56.91
45078;BME280;60508;42.622;25.416;2023-04-05T05:36:36;96123.34;;;8.39;56.21
45078;BME280;60508;42.622;25.416;2023-04-05T05:39:02;96126.22;;;8.50;54.32
45078;BME280;60508;42.622;25.416;2023-04-05T05:41:30;96129.25;;;8.58;53.78
45078;BME280;60508;42.622;25.416;2023-04-05T05:43:56;96131.22;;;8.63;54.05
45078;BME280;60508;42.622;25.416;2023-04-05T05:46:22;96133.53;;;8.76;54.04
45078;BME280;60508;42.622;25.416;2023-04-05T05:48:47;96125.22;;;8.39;52.74
45078;BME280;60508;42.622;25.416;2023-04-05T05:51:13;96137.19;;;8.70;53.54
45078;BME280;60508;42.622;25.416;2023-04-05T05:53:40;96133.41;;;8.32;54.67
45078;BME280;60508;42.622;25.416;2023-04-05T05:56:06;96141.53;;;8.20;55.90
45078;BME280;60508;42.622;25.416;2023-04-05T05:58:32;96139.00;;;8.31;55.35
45078;BME280;60508;42.622;25.416;2023-04-05T06:00:58;96139.53;;;8.45;55.15
45078;BME280;60508;42.622;25.416;2023-04-05T06:03:25;96138.44;;;8.46;56.96
45078;BME280;60508;42.622;25.416;2023-04-05T06:05:52;96151.19;;;8.04;57.72
45078;BME280;60508;42.622;25.416;2023-04-05T06:08:19;96157.03;;;8.01;59.61
45078;BME280;60508;42.622;25.416;2023-04-05T06:10:44;96152.63;;;8.29;59.53
45078;BME280;60508;42.622;25.416;2023-04-05T06:13:10;96162.78;;;8.44;58.37
45078;BME280;60508;42.622;25.416;2023-04-05T06:15:36;96154.47;;;8.80;57.43
45078;BME280;60508;42.622;25.416;2023-04-05T06:18:02;96168.59;;;9.14;55.66
45078;BME280;60508;42.622;25.416;2023-04-05T06:20:28;96168.56;;;9.36;54.18
45078;BME280;60508;42.622;25.416;2023-04-05T06:22:54;96165.13;;;9.41;52.50
45078;BME280;60508;42.622;25.416;2023-04-05T06:25:20;96168.19;;;9.49;50.99
45078;BME280;60508;42.622;25.416;2023-04-05T06:27:46;96180.53;;;9.50;51.53
45078;BME280;60508;42.622;25.416;2023-04-05T06:30:12;96174.91;;;9.52;51.48
45078;BME280;60508;42.622;25.416;2023-04-05T06:32:39;96175.69;;;9.75;51.13
45078;BME280;60508;42.622;25.416;2023-04-05T06:35:05;96168.41;;;9.97;51.49
45078;BME280;60508;42.622;25.416;2023-04-05T06:37:31;96176.13;;;10.21;50.89
45078;BME280;60508;42.622;25.416;2023-04-05T06:39:58;96184.06;;;10.38;51.02
45078;BME280;60508;42.622;25.416;2023-04-05T06:42:24;96192.50;;;10.52;49.56
45078;BME280;60508;42.622;25.416;2023-04-05T06:44:57;96185.03;;;10.59;48.06
45078;BME280;60508;42.622;25.416;2023-04-05T06:47:23;96190.53;;;10.80;48.16
45078;BME280;60508;42.622;25.416;2023-04-05T06:49:49;96189.53;;;10.91;47.25
45078;BME280;60508;42.622;25.416;2023-04-05T06:52:15;96195.50;;;10.60;46.84
45078;BME280;60508;42.622;25.416;2023-04-05T06:54:40;96194.19;;;10.63;48.20
45078;BME280;60508;42.622;25.416;2023-04-05T06:57:07;96192.25;;;10.96;47.77
45078;BME280;60508;42.622;25.416;2023-04-05T06:59:33;96207.19;;;11.24;47.63
45078;BME280;60508;42.622;25.416;2023-04-05T07:01:59;96195.22;;;10.57;48.52
45078;BME280;60508;42.622;25.416;2023-04-05T07:04:24;96200.31;;;10.96;48.09
45078;BME280;60508;42.622;25.416;2023-04-05T07:06:51;96204.53;;;11.29;47.16
45078;BME280;60508;42.622;25.416;2023-04-05T07:09:18;96193.81;;;11.40;46.69
45078;BME280;60508;42.622;25.416;2023-04-05T07:11:45;96194.47;;;11.73;46.41
45078;BME280;60508;42.622;25.416;2023-04-05T07:14:11;96196.97;;;11.95;45.92
45078;BME280;60508;42.622;25.416;2023-04-05T07:16:37;96202.13;;;12.17;44.52
45078;BME280;60508;42.622;25.416;2023-04-05T07:19:03;96202.41;;;12.31;44.34
45078;BME280;60508;42.622;25.416;2023-04-05T07:21:30;96211.31;;;12.52;44.97
45078;BME280;60508;42.622;25.416;2023-04-05T07:23:57;96212.38;;;12.56;44.46
45078;BME280;60508;42.622;25.416;2023-04-05T07:26:25;96193.50;;;12.56;43.73
45078;BME280;60508;42.622;25.416;2023-04-05T07:28:51;96212.06;;;12.88;43.88
45078;BME280;60508;42.622;25.416;2023-04-05T07:31:17;96217.41;;;13.14;43.17
45078;BME280;60508;42.622;25.416;2023-04-05T07:33:44;96210.69;;;13.06;42.47
45078;BME280;60508;42.622;25.416;2023-04-05T07:36:09;96217.69;;;11.99;44.46
45078;BME280;60508;42.622;25.416;2023-04-05T07:38:35;96212.91;;;12.32;44.68
45078;BME280;60508;42.622;25.416;2023-04-05T07:41:01;96211.00;;;12.69;44.04
45078;BME280;60508;42.622;25.416;2023-04-05T07:43:27;96210.47;;;12.51;43.88
45078;BME280;60508;42.622;25.416;2023-04-05T07:46:00;96215.88;;;12.62;43.42
45078;BME280;60508;42.622;25.416;2023-04-05T07:48:27;96223.13;;;12.87;42.65
45078;BME280;60508;42.622;25.416;2023-04-05T07:50:52;96221.19;;;13.23;40.49
45078;BME280;60508;42.622;25.416;2023-04-05T07:53:18;96225.28;;;12.85;40.79
45078;BME280;60508;42.622;25.416;2023-04-05T07:55:45;96216.69;;;12.26;42.18
45078;BME280;60508;42.622;25.416;2023-04-05T07:58:11;96226.19;;;11.60;42.60
45078;BME280;60508;42.622;25.416;2023-04-05T08:00:37;96219.56;;;11.25;43.70
45078;BME280;60508;42.622;25.416;2023-04-05T08:03:03;96224.38;;;11.18;45.19
45078;BME280;60508;42.622;25.416;2023-04-05T08:05:29;96222.84;;;11.32;44.38
45078;BME280;60508;42.622;25.416;2023-04-05T08:07:55;96226.41;;;11.54;44.61
45078;BME280;60508;42.622;25.416;2023-04-05T08:10:23;96225.16;;;11.77;44.72
45078;BME280;60508;42.622;25.416;2023-04-05T08:12:49;96220.31;;;11.79;43.33
45078;BME280;60508;42.622;25.416;2023-04-05T08:15:15;96221.75;;;12.02;42.68
45078;BME280;60508;42.622;25.416;2023-04-05T08:17:41;96225.41;;;11.70;42.67
45078;BME280;60508;42.622;25.416;2023-04-05T08:20:07;96225.94;;;11.67;44.35
45078;BME280;60508;42.622;25.416;2023-04-05T08:22:33;96237.28;;;11.79;43.49
45078;BME280;60508;42.622;25.416;2023-04-05T08:24:59;96227.94;;;12.02;43.50
45078;BME280;60508;42.622;25.416;2023-04-05T08:27:25;96227.16;;;12.12;42.44
45078;BME280;60508;42.622;25.416;2023-04-05T08:29:51;96235.75;;;11.94;42.68
45078;BME280;60508;42.622;25.416;2023-04-05T08:32:17;96233.91;;;12.25;42.51
45078;BME280;60508;42.622;25.416;2023-04-05T08:34:44;96232.31;;;12.50;42.38
45078;BME280;60508;42.622;25.416;2023-04-05T08:37:10;96235.56;;;12.47;40.62
45078;BME280;60508;42.622;25.416;2023-04-05T08:39:36;96240.66;;;12.33;41.80
45078;BME280;60508;42.622;25.416;2023-04-05T08:42:18;96231.22;;;12.15;42.42
45078;BME280;60508;42.622;25.416;2023-04-05T08:44:50;96238.50;;;12.30;40.97
45078;BME280;60508;42.622;25.416;2023-04-05T08:47:22;96237.41;;;12.20;41.93
45078;BME280;60508;42.622;25.416;2023-04-05T08:49:48;96243.09;;;12.39;41.97
45078;BME280;60508;42.622;25.416;2023-04-05T08:52:14;96242.00;;;12.97;42.57
45078;BME280;60508;42.622;25.416;2023-04-05T08:54:40;96246.19;;;13.55;40.24
45078;BME280;60508;42.622;25.416;2023-04-05T08:57:07;96244.63;;;13.48;38.74
45078;BME280;60508;42.622;25.416;2023-04-05T08:59:36;96245.16;;;13.40;39.62
45078;BME280;60508;42.622;25.416;2023-04-05T09:02:07;96250.31;;;13.11;39.09
45078;BME280;60508;42.622;25.416;2023-04-05T09:04:36;96253.59;;;12.92;40.04
45078;BME280;60508;42.622;25.416;2023-04-05T09:07:11;96246.59;;;12.81;41.07
45078;BME280;60508;42.622;25.416;2023-04-05T09:09:41;96244.97;;;12.75;41.27
45078;BME280;60508;42.622;25.416;2023-04-05T09:12:08;96252.00;;;12.50;41.19
45078;BME280;60508;42.622;25.416;2023-04-05T09:14:37;96260.84;;;12.30;42.03
45078;BME280;60508;42.622;25.416;2023-04-05T09:17:03;96251.69;;;12.31;41.52
45078;BME280;60508;42.622;25.416;2023-04-05T09:19:29;96258.97;;;12.31;42.07
45078;BME280;60508;42.622;25.416;2023-04-05T09:22:01;96259.19;;;12.19;42.61
45078;BME280;60508;42.622;25.416;2023-04-05T09:24:33;96264.03;;;12.01;42.58
45078;BME280;60508;42.622;25.416;2023-04-05T09:27:06;96248.63;;;11.92;42.41
45078;BME280;60508;42.622;25.416;2023-04-05T09:29:33;96256.72;;;11.92;42.96
45078;BME280;60508;42.622;25.416;2023-04-05T09:32:01;96252.84;;;11.67;43.32
45078;BME280;60508;42.622;25.416;2023-04-05T09:34:30;96272.28;;;11.90;43.57
45078;BME280;60508;42.622;25.416;2023-04-05T09:36:59;96267.53;;;12.02;42.90
45078;BME280;60508;42.622;25.416;2023-04-05T09:39:32;96265.38;;;12.04;42.53
45078;BME280;60508;42.622;25.416;2023-04-05T09:42:04;96260.28;;;12.13;42.13
45078;BME280;60508;42.622;25.416;2023-04-05T09:44:57;96260.31;;;12.33;42.05
45078;BME280;60508;42.622;25.416;2023-04-05T09:47:31;96268.41;;;12.64;41.78
45078;BME280;60508;42.622;25.416;2023-04-05T09:50:03;96258.97;;;12.97;40.71
45078;BME280;60508;42.622;25.416;2023-04-05T09:52:42;96249.28;;;12.86;40.25
45078;BME280;60508;42.622;25.416;2023-04-05T09:55:09;96252.22;;;13.10;40.72
45078;BME280;60508;42.622;25.416;2023-04-05T09:57:37;96261.91;;;13.42;40.24
45078;BME280;60508;42.622;25.416;2023-04-05T10:00:05;96264.06;;;13.25;39.79
45078;BME280;60508;42.622;25.416;2023-04-05T10:02:40;96255.50;;;12.92;39.71
45078;BME280;60508;42.622;25.416;2023-04-05T10:05:07;96262.22;;;13.00;40.19
45078;BME280;60508;42.622;25.416;2023-04-05T10:07:37;96264.91;;;13.10;40.05
45078;BME280;60508;42.622;25.416;2023-04-05T10:10:04;96257.88;;;13.14;40.58
45078;BME280;60508;42.622;25.416;2023-04-05T10:12:31;96251.38;;;13.25;40.42
45078;BME280;60508;42.622;25.416;2023-04-05T10:14:58;96253.00;;;13.26;38.98
45078;BME280;60508;42.622;25.416;2023-04-05T10:17:37;96256.53;;;13.37;39.51
45078;BME280;60508;42.622;25.416;2023-04-05T10:20:17;96261.63;;;13.44;39.91
45078;BME280;60508;42.622;25.416;2023-04-05T10:25:45;96259.78;;;13.08;40.36
45078;BME280;60508;42.622;25.416;2023-04-05T10:28:33;96257.06;;;13.39;40.80
45078;BME280;60508;42.622;25.416;2023-04-05T10:34:06;96263.31;;;12.99;40.88
45078;BME280;60508;42.622;25.416;2023-04-05T10:36:56;96254.16;;;12.79;40.05
45078;BME280;60508;42.622;25.416;2023-04-05T10:39:28;96257.38;;;13.02;40.33
45078;BME280;60508;42.622;25.416;2023-04-05T10:42:00;96264.34;;;13.08;40.47
45078;BME280;60508;42.622;25.416;2023-04-05T10:44:30;96259.25;;;12.96;40.23
45078;BME280;60508;42.622;25.416;2023-04-05T10:46:59;96256.53;;;13.17;40.74
45078;BME280;60508;42.622;25.416;2023-04-05T10:51:55;96261.19;;;13.86;39.36
45078;BME280;60508;42.622;25.416;2023-04-05T10:54:21;96266.69;;;13.71;39.58
45078;BME280;60508;42.622;25.416;2023-04-05T10:56:47;96273.25;;;13.39;39.25
45078;BME280;60508;42.622;25.416;2023-04-05T10:59:14;96273.81;;;12.95;40.00
45078;BME280;60508;42.622;25.416;2023-04-05T11:01:42;96273.28;;;12.83;42.33
45078;BME280;60508;42.622;25.416;2023-04-05T11:04:11;96271.94;;;12.75;45.00
45078;BME280;60508;42.622;25.416;2023-04-05T11:06:38;96277.88;;;12.67;45.60
45078;BME280;60508;42.622;25.416;2023-04-05T11:09:11;96269.22;;;12.39;45.66
45078;BME280;60508;42.622;25.416;2023-04-05T11:11:43;96267.25;;;12.03;47.87
45078;BME280;60508;42.622;25.416;2023-04-05T11:14:23;96277.72;;;11.95;48.93
45078;BME280;60508;42.622;25.416;2023-04-05T11:16:54;96268.47;;;11.70;48.90
45078;BME280;60508;42.622;25.416;2023-04-05T11:22:09;96278.47;;;11.27;50.55
45078;BME280;60508;42.622;25.416;2023-04-05T11:24:51;96285.69;;;11.21;51.62
45078;BME280;60508;42.622;25.416;2023-04-05T11:27:27;96278.63;;;11.10;51.69
45078;BME280;60508;42.622;25.416;2023-04-05T11:29:56;96278.00;;;10.98;51.71
45078;BME280;60508;42.622;25.416;2023-04-05T11:32:22;96282.81;;;10.90;52.24
45078;BME280;60508;42.622;25.416;2023-04-05T11:34:59;96278.16;;;10.81;52.85
45078;BME280;60508;42.622;25.416;2023-04-05T11:40:28;96281.66;;;10.49;53.81
45078;BME280;60508;42.622;25.416;2023-04-05T11:43:05;96274.09;;;10.46;53.84
45078;BME280;60508;42.622;25.416;2023-04-05T11:45:33;96276.50;;;10.42;54.25
45078;BME280;60508;42.622;25.416;2023-04-05T11:48:04;96274.34;;;10.44;54.89
45078;BME280;60508;42.622;25.416;2023-04-05T11:50:31;96287.25;;;10.42;54.19
45078;BME280;60508;42.622;25.416;2023-04-05T11:53:08;96280.75;;;10.38;54.61
45078;BME280;60508;42.622;25.416;2023-04-05T11:55:43;96267.28;;;10.33;53.47
45078;BME280;60508;42.622;25.416;2023-04-05T11:58:23;96281.63;;;10.21;53.50
45078;BME280;60508;42.622;25.416;2023-04-05T12:00:59;96289.69;;;10.21;53.93
45078;BME280;60508;42.622;25.416;2023-04-05T12:03:26;96283.72;;;10.14;54.57
45078;BME280;60508;42.622;25.416;2023-04-05T12:05:57;96277.50;;;10.14;54.52
45078;BME280;60508;42.622;25.416;2023-04-05T12:08:37;96276.22;;;10.16;55.25
45078;BME280;60508;42.622;25.416;2023-04-05T12:11:06;96269.78;;;10.17;55.38
45078;BME280;60508;42.622;25.416;2023-04-05T12:13:32;96277.31;;;10.20;54.94
45078;BME280;60508;42.622;25.416;2023-04-05T12:16:01;96285.69;;;10.24;55.56
45078;BME280;60508;42.622;25.416;2023-04-05T12:18:29;96272.00;;;10.26;55.05
45078;BME280;60508;42.622;25.416;2023-04-05T12:20:56;96281.34;;;10.18;54.15
45078;BME280;60508;42.622;25.416;2023-04-05T12:23:22;96282.84;;;10.09;53.95
45078;BME280;60508;42.622;25.416;2023-04-05T12:25:49;96277.97;;;10.05;54.55
45078;BME280;60508;42.622;25.416;2023-04-05T12:28:16;96285.66;;;9.97;54.84
45078;BME280;60508;42.622;25.416;2023-04-05T12:30:52;96291.66;;;10.04;54.69
45078;BME280;60508;42.622;25.416;2023-04-05T12:33:29;96279.22;;;9.98;54.04
45078;BME280;60508;42.622;25.416;2023-04-05T12:35:56;96289.47;;;10.01;54.02
45078;BME280;60508;42.622;25.416;2023-04-05T12:38:26;96277.97;;;10.05;55.05
45078;BME280;60508;42.622;25.416;2023-04-05T12:40:52;96287.66;;;10.07;54.77
45078;BME280;60508;42.622;25.416;2023-04-05T12:43:19;96286.69;;;10.18;53.98
45078;BME280;60508;42.622;25.416;2023-04-05T12:45:46;96285.66;;;9.97;53.69
45078;BME280;60508;42.622;25.416;2023-04-05T12:48:13;96285.16;;;10.00;53.49
45078;BME280;60508;42.622;25.416;2023-04-05T12:50:44;96283.84;;;10.02;54.09
45078;BME280;60508;42.622;25.416;2023-04-05T12:53:15;96294.81;;;10.01;54.17
45078;BME280;60508;42.622;25.416;2023-04-05T12:55:53;96286.97;;;9.94;54.09
45078;BME280;60508;42.622;25.416;2023-04-05T12:58:20;96286.47;;;9.97;54.48
45078;BME280;60508;42.622;25.416;2023-04-05T13:00:47;96281.34;;;9.96;53.61
45078;BME280;60508;42.622;25.416;2023-04-05T13:03:18;96282.94;;;9.92;54.44
45078;BME280;60508;42.622;25.416;2023-04-05T13:05:46;96273.59;;;9.99;54.25
45078;BME280;60508;42.622;25.416;2023-04-05T13:08:15;96282.59;;;9.88;54.11
45078;BME280;60508;42.622;25.416;2023-04-05T13:10:47;96290.66;;;9.88;54.40
45078;BME280;60508;42.622;25.416;2023-04-05T13:13:16;96278.81;;;9.84;54.70
45078;BME280;60508;42.622;25.416;2023-04-05T13:15:42;96287.88;;;9.78;54.75
45078;BME280;60508;42.622;25.416;2023-04-05T13:18:09;96294.63;;;9.80;54.93
45078;BME280;60508;42.622;25.416;2023-04-05T13:20:35;96283.88;;;9.80;54.38
45078;BME280;60508;42.622;25.416;2023-04-05T13:23:01;96286.88;;;9.84;54.87
45078;BME280;60508;42.622;25.416;2023-04-05T13:25:27;96278.81;;;9.84;54.90
45078;BME280;60508;42.622;25.416;2023-04-05T13:27:53;96292.66;;;9.98;55.24
45078;BME280;60508;42.622;25.416;2023-04-05T13:30:20;96295.97;;;10.05;54.97
45078;BME280;60508;42.622;25.416;2023-04-05T13:32:46;96287.91;;;10.05;54.50
45078;BME280;60508;42.622;25.416;2023-04-05T13:35:12;96293.06;;;10.12;55.26